sensor_id;sensor_type;location;lat;lon;timestamp;P1;durP1;ratioP1;P2;durP2;ratioP2
64157;SDS011;50449;51.528;5.076;2023-07-31T00:01:52;75.28;;;71.38;;
64157;SDS011;50449;51.528;5.076;2023-07-31T00:04:17;83.78;;;79.63;;
64157;SDS011;50449;51.528;5.076;2023-07-31T00:06:43;76.75;;;72.57;;
64157;SDS011;50449;51.528;5.076;2023-07-31T00:09:08;71.40;;;67.38;;
64157;SDS011;50449;51.528;5.076;2023-07-31T00:11:34;74.28;;;70.03;;
64157;SDS011;50449;51.528;5.076;2023-07-31T00:13:59;73.80;;;70.30;;
64157;SDS011;50449;51.528;5.076;2023-07-31T00:16:24;75.85;;;72.00;;
64157;SDS011;50449;51.528;5.076;2023-07-31T00:18:50;71.22;;;67.47;;
64157;SDS011;50449;51.528;5.076;2023-07-31T00:21:15;72.68;;;68.88;;
64157;SDS011;50449;51.528;5.076;2023-07-31T00:23:40;72.65;;;68.80;;
64157;SDS011;50449;51.528;5.076;2023-07-31T00:26:06;72.40;;;68.80;;
64157;SDS011;50449;51.528;5.076;2023-07-31T00:28:31;80.90;;;76.20;;
64157;SDS011;50449;51.528;5.076;2023-07-31T00:30:57;75.60;;;71.45;;
64157;SDS011;50449;51.528;5.076;2023-07-31T00:33:22;75.80;;;71.35;;
64157;SDS011;50449;51.528;5.076;2023-07-31T00:35:48;73.80;;;69.90;;
64157;SDS011;50449;51.528;5.076;2023-07-31T00:38:13;72.80;;;68.80;;
64157;SDS011;50449;51.528;5.076;2023-07-31T00:40:39;73.78;;;69.65;;
64157;SDS011;50449;51.528;5.076;2023-07-31T00:43:04;74.20;;;70.15;;
64157;SDS011;50449;51.528;5.076;2023-07-31T00:45:29;74.47;;;70.43;;
64157;SDS011;50449;51.528;5.076;2023-07-31T00:47:55;71.65;;;68.25;;
64157;SDS011;50449;51.528;5.076;2023-07-31T00:50:22;73.70;;;69.68;;
64157;SDS011;50449;51.528;5.076;2023-07-31T00:52:49;71.88;;;68.18;;
64157;SDS011;50449;51.528;5.076;2023-07-31T00:55:14;76.60;;;72.30;;
64157;SDS011;50449;51.528;5.076;2023-07-31T00:57:41;75.82;;;71.72;;
64157;SDS011;50449;51.528;5.076;2023-07-31T01:00:07;71.95;;;68.22;;
64157;SDS011;50449;51.528;5.076;2023-07-31T01:02:33;72.82;;;68.95;;
64157;SDS011;50449;51.528;5.076;2023-07-31T01:04:59;71.88;;;67.85;;
64157;SDS011;50449;51.528;5.076;2023-07-31T01:07:31;74.05;;;69.93;;
64157;SDS011;50449;51.528;5.076;2023-07-31T01:12:56;73.72;;;69.47;;
64157;SDS011;50449;51.528;5.076;2023-07-31T01:15:22;73.85;;;69.90;;
64157;SDS011;50449;51.528;5.076;2023-07-31T01:17:48;69.28;;;65.97;;
64157;SDS011;50449;51.528;5.076;2023-07-31T01:20:15;72.15;;;68.47;;
64157;SDS011;50449;51.528;5.076;2023-07-31T01:28:30;71.40;;;67.60;;
64157;SDS011;50449;51.528;5.076;2023-07-31T01:31:06;68.60;;;65.30;;
64157;SDS011;50449;51.528;5.076;2023-07-31T01:33:33;72.50;;;68.90;;
64157;SDS011;50449;51.528;5.076;2023-07-31T01:35:59;70.85;;;67.20;;
64157;SDS011;50449;51.528;5.076;2023-07-31T01:38:25;73.18;;;69.28;;
64157;SDS011;50449;51.528;5.076;2023-07-31T01:40:51;74.53;;;70.38;;
64157;SDS011;50449;51.528;5.076;2023-07-31T01:43:18;72.75;;;69.15;;
64157;SDS011;50449;51.528;5.076;2023-07-31T01:45:44;70.93;;;67.30;;
64157;SDS011;50449;51.528;5.076;2023-07-31T01:48:09;72.95;;;69.25;;
64157;SDS011;50449;51.528;5.076;2023-07-31T01:50:34;69.47;;;66.05;;
64157;SDS011;50449;51.528;5.076;2023-07-31T01:53:00;75.38;;;71.05;;
64157;SDS011;50449;51.528;5.076;2023-07-31T01:55:25;73.55;;;69.35;;
64157;SDS011;50449;51.528;5.076;2023-07-31T01:57:51;72.63;;;68.32;;
64157;SDS011;50449;51.528;5.076;2023-07-31T02:00:17;70.18;;;66.50;;
64157;SDS011;50449;51.528;5.076;2023-07-31T02:02:43;72.10;;;68.53;;
64157;SDS011;50449;51.528;5.076;2023-07-31T02:05:08;67.57;;;63.78;;
64157;SDS011;50449;51.528;5.076;2023-07-31T02:07:34;70.70;;;66.70;;
64157;SDS011;50449;51.528;5.076;2023-07-31T02:09:59;70.07;;;66.22;;
64157;SDS011;50449;51.528;5.076;2023-07-31T02:12:24;72.70;;;68.82;;
64157;SDS011;50449;51.528;5.076;2023-07-31T02:14:50;69.93;;;66.43;;
64157;SDS011;50449;51.528;5.076;2023-07-31T02:17:15;72.57;;;68.57;;
64157;SDS011;50449;51.528;5.076;2023-07-31T02:19:41;70.70;;;66.88;;
64157;SDS011;50449;51.528;5.076;2023-07-31T02:22:06;71.55;;;67.32;;
64157;SDS011;50449;51.528;5.076;2023-07-31T02:24:31;69.65;;;66.03;;
64157;SDS011;50449;51.528;5.076;2023-07-31T02:26:57;71.28;;;67.40;;
64157;SDS011;50449;51.528;5.076;2023-07-31T02:29:22;68.38;;;65.13;;
64157;SDS011;50449;51.528;5.076;2023-07-31T02:31:48;71.95;;;67.90;;
64157;SDS011;50449;51.528;5.076;2023-07-31T02:34:13;71.00;;;66.57;;
64157;SDS011;50449;51.528;5.076;2023-07-31T02:36:39;69.45;;;65.70;;
64157;SDS011;50449;51.528;5.076;2023-07-31T02:39:04;72.03;;;67.97;;
64157;SDS011;50449;51.528;5.076;2023-07-31T02:41:30;71.53;;;67.90;;
64157;SDS011;50449;51.528;5.076;2023-07-31T02:43:55;69.90;;;66.00;;
64157;SDS011;50449;51.528;5.076;2023-07-31T02:46:20;70.05;;;66.10;;
64157;SDS011;50449;51.528;5.076;2023-07-31T02:48:49;70.75;;;66.82;;
64157;SDS011;50449;51.528;5.076;2023-07-31T02:51:14;70.80;;;66.50;;
64157;SDS011;50449;51.528;5.076;2023-07-31T02:53:40;72.35;;;68.38;;
64157;SDS011;50449;51.528;5.076;2023-07-31T02:56:05;73.20;;;69.00;;
64157;SDS011;50449;51.528;5.076;2023-07-31T02:58:31;71.07;;;67.22;;
64157;SDS011;50449;51.528;5.076;2023-07-31T03:00:57;73.93;;;69.22;;
64157;SDS011;50449;51.528;5.076;2023-07-31T03:03:23;70.03;;;66.40;;
64157;SDS011;50449;51.528;5.076;2023-07-31T03:05:49;65.88;;;62.65;;
64157;SDS011;50449;51.528;5.076;2023-07-31T03:08:14;71.93;;;67.97;;
64157;SDS011;50449;51.528;5.076;2023-07-31T03:10:40;71.03;;;67.20;;
64157;SDS011;50449;51.528;5.076;2023-07-31T03:13:05;72.03;;;68.10;;
64157;SDS011;50449;51.528;5.076;2023-07-31T03:15:31;68.03;;;63.95;;
64157;SDS011;50449;51.528;5.076;2023-07-31T03:17:56;69.90;;;66.05;;
64157;SDS011;50449;51.528;5.076;2023-07-31T03:20:22;71.32;;;67.18;;
64157;SDS011;50449;51.528;5.076;2023-07-31T03:22:47;71.13;;;66.95;;
64157;SDS011;50449;51.528;5.076;2023-07-31T03:25:13;70.32;;;66.38;;
64157;SDS011;50449;51.528;5.076;2023-07-31T03:27:39;70.45;;;66.75;;
64157;SDS011;50449;51.528;5.076;2023-07-31T03:30:05;72.13;;;68.03;;
64157;SDS011;50449;51.528;5.076;2023-07-31T03:32:31;70.03;;;66.32;;
64157;SDS011;50449;51.528;5.076;2023-07-31T03:34:57;71.00;;;67.25;;
64157;SDS011;50449;51.528;5.076;2023-07-31T03:37:22;68.45;;;64.72;;
64157;SDS011;50449;51.528;5.076;2023-07-31T03:39:48;75.10;;;71.13;;
64157;SDS011;50449;51.528;5.076;2023-07-31T03:42:13;66.70;;;63.30;;
64157;SDS011;50449;51.528;5.076;2023-07-31T03:44:39;68.75;;;65.25;;
64157;SDS011;50449;51.528;5.076;2023-07-31T03:47:05;69.32;;;65.40;;
64157;SDS011;50449;51.528;5.076;2023-07-31T03:49:31;68.13;;;64.70;;
64157;SDS011;50449;51.528;5.076;2023-07-31T03:51:56;68.65;;;64.55;;
64157;SDS011;50449;51.528;5.076;2023-07-31T03:54:22;68.88;;;64.90;;
64157;SDS011;50449;51.528;5.076;2023-07-31T03:56:47;68.45;;;64.95;;
64157;SDS011;50449;51.528;5.076;2023-07-31T03:59:13;68.07;;;64.68;;
64157;SDS011;50449;51.528;5.076;2023-07-31T04:01:38;68.82;;;65.03;;
64157;SDS011;50449;51.528;5.076;2023-07-31T04:04:03;67.82;;;64.35;;
64157;SDS011;50449;51.528;5.076;2023-07-31T04:06:29;71.13;;;67.40;;
64157;SDS011;50449;51.528;5.076;2023-07-31T04:08:54;68.50;;;64.85;;
64157;SDS011;50449;51.528;5.076;2023-07-31T04:11:20;65.90;;;62.50;;
64157;SDS011;50449;51.528;5.076;2023-07-31T04:13:45;70.03;;;66.38;;
64157;SDS011;50449;51.528;5.076;2023-07-31T04:16:10;68.93;;;65.35;;
64157;SDS011;50449;51.528;5.076;2023-07-31T04:18:37;65.85;;;62.50;;
64157;SDS011;50449;51.528;5.076;2023-07-31T04:21:02;70.05;;;66.18;;
64157;SDS011;50449;51.528;5.076;2023-07-31T04:23:28;68.90;;;65.43;;
64157;SDS011;50449;51.528;5.076;2023-07-31T04:25:53;69.20;;;65.25;;
64157;SDS011;50449;51.528;5.076;2023-07-31T04:28:19;70.88;;;66.70;;
64157;SDS011;50449;51.528;5.076;2023-07-31T04:30:44;69.45;;;65.30;;
64157;SDS011;50449;51.528;5.076;2023-07-31T04:33:10;68.68;;;64.78;;
64157;SDS011;50449;51.528;5.076;2023-07-31T04:35:35;68.32;;;64.78;;
64157;SDS011;50449;51.528;5.076;2023-07-31T04:38:00;69.47;;;65.78;;
64157;SDS011;50449;51.528;5.076;2023-07-31T04:40:26;67.55;;;64.22;;
64157;SDS011;50449;51.528;5.076;2023-07-31T04:42:51;67.82;;;64.32;;
64157;SDS011;50449;51.528;5.076;2023-07-31T04:45:17;70.65;;;66.97;;
64157;SDS011;50449;51.528;5.076;2023-07-31T04:47:42;68.50;;;64.90;;
64157;SDS011;50449;51.528;5.076;2023-07-31T04:50:07;67.72;;;64.13;;
64157;SDS011;50449;51.528;5.076;2023-07-31T04:52:33;69.22;;;65.43;;
64157;SDS011;50449;51.528;5.076;2023-07-31T04:54:59;67.13;;;63.75;;
64157;SDS011;50449;51.528;5.076;2023-07-31T04:57:24;70.20;;;66.88;;
64157;SDS011;50449;51.528;5.076;2023-07-31T04:59:49;68.72;;;64.90;;
64157;SDS011;50449;51.528;5.076;2023-07-31T05:02:15;67.40;;;63.70;;
64157;SDS011;50449;51.528;5.076;2023-07-31T05:04:40;66.45;;;62.95;;
64157;SDS011;50449;51.528;5.076;2023-07-31T05:07:06;67.38;;;63.88;;
64157;SDS011;50449;51.528;5.076;2023-07-31T05:09:31;68.10;;;64.15;;
64157;SDS011;50449;51.528;5.076;2023-07-31T05:11:57;68.07;;;64.28;;
64157;SDS011;50449;51.528;5.076;2023-07-31T05:14:22;65.47;;;61.97;;
64157;SDS011;50449;51.528;5.076;2023-07-31T05:16:47;67.07;;;63.55;;
64157;SDS011;50449;51.528;5.076;2023-07-31T05:19:13;69.63;;;65.88;;
64157;SDS011;50449;51.528;5.076;2023-07-31T05:21:39;68.75;;;65.55;;
64157;SDS011;50449;51.528;5.076;2023-07-31T05:24:04;66.57;;;63.20;;
64157;SDS011;50449;51.528;5.076;2023-07-31T05:26:30;68.15;;;64.50;;
64157;SDS011;50449;51.528;5.076;2023-07-31T05:28:55;67.90;;;64.18;;
64157;SDS011;50449;51.528;5.076;2023-07-31T05:31:21;70.53;;;67.00;;
64157;SDS011;50449;51.528;5.076;2023-07-31T05:33:47;67.93;;;64.45;;
64157;SDS011;50449;51.528;5.076;2023-07-31T05:36:15;66.68;;;63.38;;
64157;SDS011;50449;51.528;5.076;2023-07-31T05:38:41;68.45;;;65.05;;
64157;SDS011;50449;51.528;5.076;2023-07-31T05:41:07;64.80;;;61.40;;
64157;SDS011;50449;51.528;5.076;2023-07-31T05:43:32;65.53;;;62.33;;
64157;SDS011;50449;51.528;5.076;2023-07-31T05:45:57;67.82;;;64.43;;
64157;SDS011;50449;51.528;5.076;2023-07-31T05:48:23;65.15;;;61.72;;
64157;SDS011;50449;51.528;5.076;2023-07-31T05:50:48;67.90;;;64.43;;
64157;SDS011;50449;51.528;5.076;2023-07-31T05:53:14;68.60;;;64.70;;
64157;SDS011;50449;51.528;5.076;2023-07-31T05:55:39;64.13;;;61.03;;
64157;SDS011;50449;51.528;5.076;2023-07-31T05:58:05;64.35;;;61.15;;
64157;SDS011;50449;51.528;5.076;2023-07-31T06:00:30;66.63;;;63.33;;
64157;SDS011;50449;51.528;5.076;2023-07-31T06:02:56;66.57;;;63.25;;
64157;SDS011;50449;51.528;5.076;2023-07-31T06:05:21;66.35;;;63.28;;
64157;SDS011;50449;51.528;5.076;2023-07-31T06:07:47;64.63;;;61.60;;
64157;SDS011;50449;51.528;5.076;2023-07-31T06:10:12;65.35;;;62.30;;
64157;SDS011;50449;51.528;5.076;2023-07-31T06:12:38;65.20;;;62.20;;
64157;SDS011;50449;51.528;5.076;2023-07-31T06:15:03;65.93;;;62.42;;
64157;SDS011;50449;51.528;5.076;2023-07-31T06:17:29;63.10;;;60.17;;
64157;SDS011;50449;51.528;5.076;2023-07-31T06:19:56;66.63;;;62.95;;
64157;SDS011;50449;51.528;5.076;2023-07-31T06:22:21;62.97;;;60.00;;
64157;SDS011;50449;51.528;5.076;2023-07-31T06:24:47;62.78;;;59.85;;
64157;SDS011;50449;51.528;5.076;2023-07-31T06:27:12;63.47;;;60.28;;
64157;SDS011;50449;51.528;5.076;2023-07-31T06:29:38;61.97;;;59.08;;
64157;SDS011;50449;51.528;5.076;2023-07-31T06:32:03;65.15;;;62.03;;
64157;SDS011;50449;51.528;5.076;2023-07-31T06:34:29;64.93;;;61.72;;
64157;SDS011;50449;51.528;5.076;2023-07-31T06:36:55;65.80;;;62.60;;
64157;SDS011;50449;51.528;5.076;2023-07-31T06:39:21;64.47;;;61.38;;
64157;SDS011;50449;51.528;5.076;2023-07-31T06:41:46;66.20;;;63.00;;
64157;SDS011;50449;51.528;5.076;2023-07-31T06:44:12;65.00;;;61.90;;
64157;SDS011;50449;51.528;5.076;2023-07-31T06:46:37;70.28;;;66.97;;
64157;SDS011;50449;51.528;5.076;2023-07-31T06:49:02;67.35;;;63.80;;
64157;SDS011;50449;51.528;5.076;2023-07-31T06:51:28;64.00;;;60.83;;
64157;SDS011;50449;51.528;5.076;2023-07-31T06:53:53;65.22;;;62.15;;
64157;SDS011;50449;51.528;5.076;2023-07-31T06:56:20;65.63;;;62.35;;
64157;SDS011;50449;51.528;5.076;2023-07-31T06:58:46;68.25;;;64.75;;
64157;SDS011;50449;51.528;5.076;2023-07-31T07:01:11;65.78;;;62.78;;
64157;SDS011;50449;51.528;5.076;2023-07-31T07:03:36;64.25;;;61.25;;
64157;SDS011;50449;51.528;5.076;2023-07-31T07:06:02;66.78;;;63.58;;
64157;SDS011;50449;51.528;5.076;2023-07-31T07:08:27;66.35;;;63.22;;
64157;SDS011;50449;51.528;5.076;2023-07-31T07:10:53;67.63;;;64.20;;
64157;SDS011;50449;51.528;5.076;2023-07-31T07:13:18;68.88;;;65.57;;
64157;SDS011;50449;51.528;5.076;2023-07-31T07:15:48;66.30;;;62.42;;
64157;SDS011;50449;51.528;5.076;2023-07-31T07:18:14;65.80;;;62.75;;
64157;SDS011;50449;51.528;5.076;2023-07-31T07:20:39;65.55;;;62.45;;
64157;SDS011;50449;51.528;5.076;2023-07-31T07:23:05;69.47;;;66.07;;
64157;SDS011;50449;51.528;5.076;2023-07-31T07:25:31;65.22;;;61.90;;
64157;SDS011;50449;51.528;5.076;2023-07-31T07:27:56;66.97;;;63.47;;
64157;SDS011;50449;51.528;5.076;2023-07-31T07:30:22;64.68;;;61.65;;
64157;SDS011;50449;51.528;5.076;2023-07-31T07:32:49;66.28;;;63.17;;
64157;SDS011;50449;51.528;5.076;2023-07-31T07:35:14;67.80;;;64.40;;
64157;SDS011;50449;51.528;5.076;2023-07-31T07:37:40;65.53;;;62.30;;
64157;SDS011;50449;51.528;5.076;2023-07-31T07:40:05;68.78;;;65.30;;
64157;SDS011;50449;51.528;5.076;2023-07-31T07:42:31;66.22;;;63.05;;
64157;SDS011;50449;51.528;5.076;2023-07-31T07:44:57;67.60;;;64.28;;
64157;SDS011;50449;51.528;5.076;2023-07-31T07:47:23;66.72;;;63.63;;
64157;SDS011;50449;51.528;5.076;2023-07-31T07:49:48;66.30;;;62.83;;
64157;SDS011;50449;51.528;5.076;2023-07-31T07:52:13;68.97;;;65.45;;
64157;SDS011;50449;51.528;5.076;2023-07-31T07:54:39;64.82;;;61.72;;
64157;SDS011;50449;51.528;5.076;2023-07-31T07:57:04;68.50;;;65.00;;
64157;SDS011;50449;51.528;5.076;2023-07-31T07:59:30;66.47;;;63.08;;
64157;SDS011;50449;51.528;5.076;2023-07-31T08:01:55;64.65;;;61.55;;
64157;SDS011;50449;51.528;5.076;2023-07-31T08:04:22;64.05;;;61.00;;
64157;SDS011;50449;51.528;5.076;2023-07-31T08:06:47;66.57;;;63.25;;
64157;SDS011;50449;51.528;5.076;2023-07-31T08:09:13;68.13;;;64.68;;
64157;SDS011;50449;51.528;5.076;2023-07-31T08:11:38;65.72;;;62.63;;
64157;SDS011;50449;51.528;5.076;2023-07-31T08:14:04;67.60;;;63.65;;
64157;SDS011;50449;51.528;5.076;2023-07-31T08:16:29;65.68;;;62.38;;
64157;SDS011;50449;51.528;5.076;2023-07-31T08:18:54;67.15;;;63.60;;
64157;SDS011;50449;51.528;5.076;2023-07-31T08:21:20;66.53;;;62.97;;
64157;SDS011;50449;51.528;5.076;2023-07-31T08:23:46;65.10;;;61.95;;
64157;SDS011;50449;51.528;5.076;2023-07-31T08:26:15;68.75;;;65.35;;
64157;SDS011;50449;51.528;5.076;2023-07-31T08:28:42;68.80;;;65.30;;
64157;SDS011;50449;51.528;5.076;2023-07-31T08:31:07;68.25;;;64.85;;
64157;SDS011;50449;51.528;5.076;2023-07-31T08:33:33;67.10;;;63.90;;
64157;SDS011;50449;51.528;5.076;2023-07-31T08:35:58;65.25;;;62.05;;
64157;SDS011;50449;51.528;5.076;2023-07-31T08:38:25;65.93;;;62.70;;
64157;SDS011;50449;51.528;5.076;2023-07-31T08:40:51;67.25;;;63.85;;
64157;SDS011;50449;51.528;5.076;2023-07-31T08:43:16;67.63;;;64.13;;
64157;SDS011;50449;51.528;5.076;2023-07-31T08:45:43;66.43;;;63.25;;
64157;SDS011;50449;51.528;5.076;2023-07-31T08:48:09;67.47;;;63.97;;
64157;SDS011;50449;51.528;5.076;2023-07-31T08:50:36;65.88;;;62.67;;
64157;SDS011;50449;51.528;5.076;2023-07-31T08:53:03;68.25;;;64.70;;
64157;SDS011;50449;51.528;5.076;2023-07-31T08:55:28;65.95;;;62.65;;
64157;SDS011;50449;51.528;5.076;2023-07-31T08:57:54;70.25;;;66.82;;
64157;SDS011;50449;51.528;5.076;2023-07-31T09:00:21;68.38;;;64.50;;
64157;SDS011;50449;51.528;5.076;2023-07-31T09:03:32;68.63;;;65.25;;
64157;SDS011;50449;51.528;5.076;2023-07-31T09:05:42;64.65;;;61.47;;
64157;SDS011;50449;51.528;5.076;2023-07-31T09:08:10;68.53;;;64.88;;
64157;SDS011;50449;51.528;5.076;2023-07-31T09:10:41;65.43;;;62.28;;
64157;SDS011;50449;51.528;5.076;2023-07-31T09:13:14;68.00;;;64.63;;
64157;SDS011;50449;51.528;5.076;2023-07-31T09:15:41;65.68;;;62.55;;
64157;SDS011;50449;51.528;5.076;2023-07-31T09:18:08;67.28;;;63.90;;
64157;SDS011;50449;51.528;5.076;2023-07-31T09:20:34;66.47;;;63.08;;
64157;SDS011;50449;51.528;5.076;2023-07-31T09:25:33;64.85;;;61.38;;
64157;SDS011;50449;51.528;5.076;2023-07-31T09:28:05;65.90;;;62.38;;
64157;SDS011;50449;51.528;5.076;2023-07-31T09:30:48;67.03;;;63.72;;
64157;SDS011;50449;51.528;5.076;2023-07-31T09:33:15;68.13;;;64.25;;
64157;SDS011;50449;51.528;5.076;2023-07-31T09:35:41;64.43;;;61.35;;
64157;SDS011;50449;51.528;5.076;2023-07-31T09:38:08;68.25;;;64.82;;
64157;SDS011;50449;51.528;5.076;2023-07-31T09:40:36;66.32;;;63.13;;
64157;SDS011;50449;51.528;5.076;2023-07-31T09:43:07;66.68;;;63.53;;
64157;SDS011;50449;51.528;5.076;2023-07-31T09:45:36;65.22;;;62.22;;
64157;SDS011;50449;51.528;5.076;2023-07-31T09:48:09;65.75;;;62.53;;
64157;SDS011;50449;51.528;5.076;2023-07-31T09:50:37;67.18;;;63.95;;
64157;SDS011;50449;51.528;5.076;2023-07-31T09:53:04;68.20;;;64.90;;
64157;SDS011;50449;51.528;5.076;2023-07-31T09:55:33;65.55;;;62.45;;
64157;SDS011;50449;51.528;5.076;2023-07-31T09:58:00;67.40;;;64.10;;
64157;SDS011;50449;51.528;5.076;2023-07-31T10:00:31;67.07;;;63.78;;
64157;SDS011;50449;51.528;5.076;2023-07-31T10:02:59;67.53;;;64.30;;
64157;SDS011;50449;51.528;5.076;2023-07-31T10:05:29;66.72;;;63.55;;
64157;SDS011;50449;51.528;5.076;2023-07-31T10:07:58;66.03;;;62.72;;
64157;SDS011;50449;51.528;5.076;2023-07-31T10:10:25;63.83;;;60.78;;
64157;SDS011;50449;51.528;5.076;2023-07-31T10:12:52;66.72;;;63.55;;
64157;SDS011;50449;51.528;5.076;2023-07-31T10:15:20;66.50;;;63.30;;
64157;SDS011;50449;51.528;5.076;2023-07-31T10:17:47;65.57;;;62.47;;
64157;SDS011;50449;51.528;5.076;2023-07-31T10:20:14;65.65;;;62.33;;
64157;SDS011;50449;51.528;5.076;2023-07-31T10:22:44;67.00;;;63.85;;
64157;SDS011;50449;51.528;5.076;2023-07-31T10:25:13;66.93;;;63.70;;
64157;SDS011;50449;51.528;5.076;2023-07-31T10:27:40;66.68;;;63.22;;
64157;SDS011;50449;51.528;5.076;2023-07-31T10:30:08;66.03;;;62.83;;
64157;SDS011;50449;51.528;5.076;2023-07-31T10:32:36;65.55;;;62.17;;
64157;SDS011;50449;51.528;5.076;2023-07-31T10:35:04;67.20;;;64.00;;
64157;SDS011;50449;51.528;5.076;2023-07-31T10:37:38;63.90;;;60.60;;
64157;SDS011;50449;51.528;5.076;2023-07-31T10:40:05;66.22;;;63.08;;
64157;SDS011;50449;51.528;5.076;2023-07-31T10:42:51;69.88;;;66.57;;
64157;SDS011;50449;51.528;5.076;2023-07-31T10:45:25;67.38;;;63.88;;
64157;SDS011;50449;51.528;5.076;2023-07-31T10:48:02;65.65;;;62.55;;
64157;SDS011;50449;51.528;5.076;2023-07-31T10:50:30;65.60;;;62.40;;
64157;SDS011;50449;51.528;5.076;2023-07-31T10:52:59;67.18;;;63.92;;
64157;SDS011;50449;51.528;5.076;2023-07-31T10:55:27;66.57;;;63.40;;
64157;SDS011;50449;51.528;5.076;2023-07-31T10:57:54;68.63;;;64.90;;
64157;SDS011;50449;51.528;5.076;2023-07-31T11:02:58;67.95;;;64.22;;
64157;SDS011;50449;51.528;5.076;2023-07-31T11:08:16;69.25;;;65.85;;
64157;SDS011;50449;51.528;5.076;2023-07-31T11:10:42;67.07;;;63.88;;
64157;SDS011;50449;51.528;5.076;2023-07-31T11:13:08;66.32;;;63.15;;
64157;SDS011;50449;51.528;5.076;2023-07-31T11:15:34;67.15;;;63.83;;
64157;SDS011;50449;51.528;5.076;2023-07-31T11:18:00;70.05;;;66.55;;
64157;SDS011;50449;51.528;5.076;2023-07-31T11:23:01;65.70;;;62.33;;
64157;SDS011;50449;51.528;5.076;2023-07-31T11:25:29;68.63;;;64.47;;
64157;SDS011;50449;51.528;5.076;2023-07-31T11:27:55;65.57;;;61.97;;
64157;SDS011;50449;51.528;5.076;2023-07-31T11:30:21;65.55;;;61.75;;
64157;SDS011;50449;51.528;5.076;2023-07-31T11:32:47;67.07;;;63.78;;
64157;SDS011;50449;51.528;5.076;2023-07-31T11:35:12;69.70;;;66.32;;
64157;SDS011;50449;51.528;5.076;2023-07-31T11:37:41;68.68;;;65.38;;
64157;SDS011;50449;51.528;5.076;2023-07-31T11:40:07;68.55;;;65.35;;
64157;SDS011;50449;51.528;5.076;2023-07-31T11:42:34;68.70;;;65.50;;
64157;SDS011;50449;51.528;5.076;2023-07-31T11:45:04;69.32;;;66.10;;
64157;SDS011;50449;51.528;5.076;2023-07-31T11:47:31;69.70;;;66.28;;
64157;SDS011;50449;51.528;5.076;2023-07-31T11:49:59;69.53;;;66.25;;
64157;SDS011;50449;51.528;5.076;2023-07-31T11:52:25;71.65;;;68.15;;
64157;SDS011;50449;51.528;5.076;2023-07-31T11:54:51;69.65;;;66.38;;
64157;SDS011;50449;51.528;5.076;2023-07-31T11:57:17;68.65;;;65.40;;
64157;SDS011;50449;51.528;5.076;2023-07-31T11:59:44;68.53;;;65.22;;
64157;SDS011;50449;51.528;5.076;2023-07-31T12:02:09;70.65;;;67.25;;
64157;SDS011;50449;51.528;5.076;2023-07-31T12:04:35;71.10;;;67.50;;
64157;SDS011;50449;51.528;5.076;2023-07-31T12:07:01;73.05;;;69.43;;
64157;SDS011;50449;51.528;5.076;2023-07-31T12:09:26;68.72;;;65.20;;
64157;SDS011;50449;51.528;5.076;2023-07-31T12:11:51;70.78;;;67.43;;
64157;SDS011;50449;51.528;5.076;2023-07-31T12:14:26;72.03;;;68.32;;
64157;SDS011;50449;51.528;5.076;2023-07-31T12:16:59;66.60;;;63.33;;
64157;SDS011;50449;51.528;5.076;2023-07-31T12:19:26;68.53;;;65.28;;
64157;SDS011;50449;51.528;5.076;2023-07-31T12:24:20;67.75;;;64.45;;
64157;SDS011;50449;51.528;5.076;2023-07-31T12:26:46;67.50;;;64.22;;
64157;SDS011;50449;51.528;5.076;2023-07-31T12:29:13;67.78;;;64.57;;
64157;SDS011;50449;51.528;5.076;2023-07-31T12:31:40;68.68;;;65.38;;
64157;SDS011;50449;51.528;5.076;2023-07-31T12:34:16;68.55;;;65.22;;
64157;SDS011;50449;51.528;5.076;2023-07-31T12:36:42;69.00;;;64.93;;
64157;SDS011;50449;51.528;5.076;2023-07-31T12:39:08;72.10;;;68.18;;
64157;SDS011;50449;51.528;5.076;2023-07-31T12:41:34;69.95;;;66.55;;
64157;SDS011;50449;51.528;5.076;2023-07-31T12:43:59;70.40;;;66.90;;
64157;SDS011;50449;51.528;5.076;2023-07-31T12:46:24;73.93;;;69.80;;
64157;SDS011;50449;51.528;5.076;2023-07-31T12:48:50;68.88;;;65.43;;
64157;SDS011;50449;51.528;5.076;2023-07-31T12:51:15;70.47;;;67.00;;
64157;SDS011;50449;51.528;5.076;2023-07-31T12:53:41;68.93;;;65.53;;
64157;SDS011;50449;51.528;5.076;2023-07-31T12:56:06;70.60;;;66.90;;
64157;SDS011;50449;51.528;5.076;2023-07-31T12:58:32;70.40;;;66.95;;
64157;SDS011;50449;51.528;5.076;2023-07-31T13:00:57;73.05;;;69.25;;
64157;SDS011;50449;51.528;5.076;2023-07-31T13:03:22;75.05;;;70.72;;
64157;SDS011;50449;51.528;5.076;2023-07-31T13:05:48;71.22;;;67.47;;
64157;SDS011;50449;51.528;5.076;2023-07-31T13:08:13;71.18;;;67.60;;
64157;SDS011;50449;51.528;5.076;2023-07-31T13:10:40;71.15;;;67.35;;
64157;SDS011;50449;51.528;5.076;2023-07-31T13:13:06;75.55;;;71.63;;
64157;SDS011;50449;51.528;5.076;2023-07-31T13:15:32;73.53;;;69.72;;
64157;SDS011;50449;51.528;5.076;2023-07-31T13:17:57;72.38;;;68.93;;
64157;SDS011;50449;51.528;5.076;2023-07-31T13:20:22;73.28;;;69.65;;
64157;SDS011;50449;51.528;5.076;2023-07-31T13:22:48;71.50;;;67.97;;
64157;SDS011;50449;51.528;5.076;2023-07-31T13:25:13;74.88;;;70.82;;
64157;SDS011;50449;51.528;5.076;2023-07-31T13:27:39;71.45;;;67.95;;
64157;SDS011;50449;51.528;5.076;2023-07-31T13:30:04;72.00;;;68.18;;
64157;SDS011;50449;51.528;5.076;2023-07-31T13:32:30;71.75;;;68.18;;
64157;SDS011;50449;51.528;5.076;2023-07-31T13:34:56;71.97;;;68.53;;
64157;SDS011;50449;51.528;5.076;2023-07-31T13:37:22;72.35;;;67.97;;
64157;SDS011;50449;51.528;5.076;2023-07-31T13:39:47;73.18;;;68.90;;
64157;SDS011;50449;51.528;5.076;2023-07-31T13:42:13;73.28;;;69.68;;
64157;SDS011;50449;51.528;5.076;2023-07-31T13:44:38;73.05;;;69.35;;
64157;SDS011;50449;51.528;5.076;2023-07-31T13:47:04;74.82;;;70.85;;
64157;SDS011;50449;51.528;5.076;2023-07-31T13:49:30;75.22;;;71.07;;
64157;SDS011;50449;51.528;5.076;2023-07-31T13:51:56;73.82;;;69.82;;
64157;SDS011;50449;51.528;5.076;2023-07-31T13:54:22;70.38;;;66.63;;
64157;SDS011;50449;51.528;5.076;2023-07-31T13:56:48;73.80;;;70.10;;
64157;SDS011;50449;51.528;5.076;2023-07-31T13:59:14;72.40;;;69.10;;
64157;SDS011;50449;51.528;5.076;2023-07-31T14:01:43;78.88;;;74.93;;
64157;SDS011;50449;51.528;5.076;2023-07-31T14:04:09;70.85;;;67.30;;
64157;SDS011;50449;51.528;5.076;2023-07-31T14:06:34;75.15;;;70.88;;
64157;SDS011;50449;51.528;5.076;2023-07-31T14:09:00;72.50;;;69.00;;
64157;SDS011;50449;51.528;5.076;2023-07-31T14:11:25;71.32;;;67.82;;
64157;SDS011;50449;51.528;5.076;2023-07-31T14:13:51;73.40;;;69.50;;
64157;SDS011;50449;51.528;5.076;2023-07-31T14:16:17;72.55;;;69.15;;
64157;SDS011;50449;51.528;5.076;2023-07-31T14:18:43;74.63;;;70.88;;
64157;SDS011;50449;51.528;5.076;2023-07-31T14:21:08;72.25;;;68.30;;
64157;SDS011;50449;51.528;5.076;2023-07-31T14:23:34;73.80;;;69.15;;
64157;SDS011;50449;51.528;5.076;2023-07-31T14:25:59;71.55;;;67.78;;
64157;SDS011;50449;51.528;5.076;2023-07-31T14:28:25;72.15;;;68.63;;
64157;SDS011;50449;51.528;5.076;2023-07-31T14:30:50;68.32;;;65.22;;
64157;SDS011;50449;51.528;5.076;2023-07-31T14:33:16;80.57;;;76.57;;
64157;SDS011;50449;51.528;5.076;2023-07-31T14:35:41;72.32;;;68.63;;
64157;SDS011;50449;51.528;5.076;2023-07-31T14:38:07;74.13;;;70.53;;